sensor_id;sensor_type;location;lat;lon;timestamp;pressure;altitude;pressure_sealevel;temperature;humidity
49843;BME280;55559;48.898;9.184;2022-12-18T00:02:11;99604.00;;;-9.61;100.00
49843;BME280;55559;48.898;9.184;2022-12-18T00:04:44;99559.00;;;-9.99;100.00
49843;BME280;55559;48.898;9.184;2022-12-18T00:07:13;99580.53;;;-9.89;100.00
49843;BME280;55559;48.898;9.184;2022-12-18T00:09:42;99566.69;;;-10.00;100.00
49843;BME280;55559;48.898;9.184;2022-12-18T00:12:09;99581.38;;;-9.93;100.00
49843;BME280;55559;48.898;9.184;2022-12-18T00:14:42;99596.88;;;-9.85;100.00
49843;BME280;55559;48.898;9.184;2022-12-18T00:17:10;99600.44;;;-9.76;100.00
49843;BME280;55559;48.898;9.184;2022-12-18T00:19:40;99598.72;;;-9.75;100.00
49843;BME280;55559;48.898;9.184;2022-12-18T00:22:09;99569.41;;;-9.89;100.00
49843;BME280;55559;48.898;9.184;2022-12-18T00:24:37;99546.94;;;-10.04;100.00
49843;BME280;55559;48.898;9.184;2022-12-18T00:27:05;99612.53;;;-9.67;100.00
49843;BME280;55559;48.898;9.184;2022-12-18T00:29:33;99611.69;;;-9.67;100.00
49843;BME280;55559;48.898;9.184;2022-12-18T00:32:05;99617.75;;;-9.61;100.00
49843;BME280;55559;48.898;9.184;2022-12-18T00:34:33;99616.78;;;-9.70;100.00
49843;BME280;55559;48.898;9.184;2022-12-18T00:37:00;99614.22;;;-9.70;100.00
49843;BME280;55559;48.898;9.184;2022-12-18T00:39:27;99561.69;;;-9.89;100.00
49843;BME280;55559;48.898;9.184;2022-12-18T00:41:57;99578.22;;;-9.67;100.00
49843;BME280;55559;48.898;9.184;2022-12-18T00:44:43;99577.66;;;-9.32;100.00
49843;BME280;55559;48.898;9.184;2022-12-18T00:47:14;99608.88;;;-9.02;100.00
49843;BME280;55559;48.898;9.184;2022-12-18T00:49:42;99579.56;;;-9.13;100.00
49843;BME280;55559;48.898;9.184;2022-12-18T00:52:16;99607.31;;;-8.83;100.00
49843;BME280;55559;48.898;9.184;2022-12-18T00:55:01;99600.41;;;-8.84;100.00
49843;BME280;55559;48.898;9.184;2022-12-18T00:57:59;99602.13;;;-8.84;100.00
49843;BME280;55559;48.898;9.184;2022-12-18T01:00:29;99605.53;;;-8.88;100.00
49843;BME280;55559;48.898;9.184;2022-12-18T01:03:04;99598.63;;;-8.92;100.00
49843;BME280;55559;48.898;9.184;2022-12-18T01:05:32;99574.44;;;-9.10;100.00
49843;BME280;55559;48.898;9.184;2022-12-18T01:07:59;99586.53;;;-9.03;100.00
49843;BME280;55559;48.898;9.184;2022-12-18T01:10:45;99575.28;;;-9.15;100.00
49843;BME280;55559;48.898;9.184;2022-12-18T01:13:15;99577.88;;;-9.09;100.00
49843;BME280;55559;48.898;9.184;2022-12-18T01:15:52;99548.47;;;-9.35;100.00
49843;BME280;55559;48.898;9.184;2022-12-18T01:18:27;99591.59;;;-9.13;100.00
49843;BME280;55559;48.898;9.184;2022-12-18T01:20:56;99563.94;;;-9.33;100.00
49843;BME280;55559;48.898;9.184;2022-12-18T01:23:23;99630.41;;;-8.96;100.00
49843;BME280;55559;48.898;9.184;2022-12-18T01:25:51;99626.09;;;-8.96;100.00
49843;BME280;55559;48.898;9.184;2022-12-18T01:28:19;99617.53;;;-8.93;100.00
49843;BME280;55559;48.898;9.184;2022-12-18T01:30:47;99600.25;;;-9.07;100.00
49843;BME280;55559;48.898;9.184;2022-12-18T01:33:14;99608.84;;;-9.05;100.00
49843;BME280;55559;48.898;9.184;2022-12-18T01:35:43;99604.50;;;-9.10;100.00
49843;BME280;55559;48.898;9.184;2022-12-18T01:38:10;99606.28;;;-9.03;100.00
49843;BME280;55559;48.898;9.184;2022-12-18T01:40:37;99595.03;;;-9.11;100.00
49843;BME280;55559;48.898;9.184;2022-12-18T01:43:04;99612.25;;;-9.06;100.00
49843;BME280;55559;48.898;9.184;2022-12-18T01:45:32;99628.72;;;-8.90;100.00
49843;BME280;55559;48.898;9.184;2022-12-18T01:48:06;99604.44;;;-9.18;100.00
49843;BME280;55559;48.898;9.184;2022-12-18T01:50:40;99626.94;;;-8.95;100.00
49843;BME280;55559;48.898;9.184;2022-12-18T01:53:14;99634.78;;;-8.86;100.00
49843;BME280;55559;48.898;9.184;2022-12-18T01:55:45;99594.28;;;-8.98;100.00
49843;BME280;55559;48.898;9.184;2022-12-18T01:58:18;99572.75;;;-9.05;100.00
49843;BME280;55559;48.898;9.184;2022-12-18T02:00:46;99571.84;;;-9.11;100.00
49843;BME280;55559;48.898;9.184;2022-12-18T02:03:28;99608.97;;;-8.88;100.00
49843;BME280;55559;48.898;9.184;2022-12-18T02:06:11;99620.97;;;-8.91;100.00
49843;BME280;55559;48.898;9.184;2022-12-18T02:08:50;99577.91;;;-9.05;100.00
49843;BME280;55559;48.898;9.184;2022-12-18T02:11:30;99557.19;;;-9.22;100.00
49843;BME280;55559;48.898;9.184;2022-12-18T02:14:07;99579.66;;;-9.04;100.00
49843;BME280;55559;48.898;9.184;2022-12-18T02:16:45;99587.38;;;-9.01;100.00
49843;BME280;55559;48.898;9.184;2022-12-18T02:19:47;99613.22;;;-8.94;100.00
49843;BME280;55559;48.898;9.184;2022-12-18T02:22:28;99633.03;;;-8.92;100.00
49843;BME280;55559;48.898;9.184;2022-12-18T02:25:15;99633.00;;;-8.95;100.00
49843;BME280;55559;48.898;9.184;2022-12-18T02:27:52;99616.63;;;-9.00;100.00
49843;BME280;55559;48.898;9.184;2022-12-18T02:30:29;99621.00;;;-8.88;100.00
49843;BME280;55559;48.898;9.184;2022-12-18T02:33:02;99604.59;;;-8.98;100.00
49843;BME280;55559;48.898;9.184;2022-12-18T02:35:32;99608.06;;;-8.94;100.00
49843;BME280;55559;48.898;9.184;2022-12-18T02:38:15;99626.19;;;-8.82;100.00
49843;BME280;55559;48.898;9.184;2022-12-18T02:40:46;99588.25;;;-9.02;100.00
49843;BME280;55559;48.898;9.184;2022-12-18T02:43:19;99581.25;;;-9.17;100.00
49843;BME280;55559;48.898;9.184;2022-12-18T02:45:53;99629.59;;;-8.89;100.00
49843;BME280;55559;48.898;9.184;2022-12-18T02:48:28;99632.25;;;-8.79;100.00
49843;BME280;55559;48.898;9.184;2022-12-18T02:51:02;99644.31;;;-8.76;100.00
49843;BME280;55559;48.898;9.184;2022-12-18T02:53:36;99646.00;;;-8.78;100.00
49843;BME280;55559;48.898;9.184;2022-12-18T02:56:12;99646.00;;;-8.80;100.00
49843;BME280;55559;48.898;9.184;2022-12-18T02:58:49;99641.72;;;-8.76;100.00
49843;BME280;55559;48.898;9.184;2022-12-18T03:01:34;99653.78;;;-8.72;100.00
49843;BME280;55559;48.898;9.184;2022-12-18T03:04:06;99644.38;;;-8.68;100.00
49843;BME280;55559;48.898;9.184;2022-12-18T03:06:37;99631.47;;;-8.67;100.00
49843;BME280;55559;48.898;9.184;2022-12-18T03:09:11;99629.78;;;-8.65;100.00
49843;BME280;55559;48.898;9.184;2022-12-18T03:11:42;99635.78;;;-8.64;100.00
49843;BME280;55559;48.898;9.184;2022-12-18T03:14:34;99637.53;;;-8.65;100.00
49843;BME280;55559;48.898;9.184;2022-12-18T03:17:08;99647.88;;;-8.62;100.00
49843;BME280;55559;48.898;9.184;2022-12-18T03:19:38;99659.88;;;-8.62;100.00
49843;BME280;55559;48.898;9.184;2022-12-18T03:22:07;99647.88;;;-8.62;100.00
49843;BME280;55559;48.898;9.184;2022-12-18T03:24:44;99641.81;;;-8.64;100.00
49843;BME280;55559;48.898;9.184;2022-12-18T03:27:15;99648.72;;;-8.61;100.00
49843;BME280;55559;48.898;9.184;2022-12-18T03:29:47;99658.16;;;-8.65;100.00
49843;BME280;55559;48.898;9.184;2022-12-18T03:32:24;99654.72;;;-8.61;100.00
49843;BME280;55559;48.898;9.184;2022-12-18T03:34:58;99645.28;;;-8.63;100.00
49843;BME280;55559;48.898;9.184;2022-12-18T03:37:30;99647.88;;;-8.58;100.00
49843;BME280;55559;48.898;9.184;2022-12-18T03:39:59;99646.16;;;-8.58;100.00
49843;BME280;55559;48.898;9.184;2022-12-18T03:42:29;99645.25;;;-8.60;100.00
49843;BME280;55559;48.898;9.184;2022-12-18T03:45:10;99638.44;;;-8.56;100.00
49843;BME280;55559;48.898;9.184;2022-12-18T03:47:44;99646.19;;;-8.55;100.00
49843;BME280;55559;48.898;9.184;2022-12-18T03:50:24;99643.63;;;-8.55;100.00
49843;BME280;55559;48.898;9.184;2022-12-18T03:52:58;99647.03;;;-8.57;100.00
49843;BME280;55559;48.898;9.184;2022-12-18T03:55:32;99651.31;;;-8.59;100.00
49843;BME280;55559;48.898;9.184;2022-12-18T03:58:06;99653.00;;;-8.60;100.00
49843;BME280;55559;48.898;9.184;2022-12-18T04:00:56;99647.84;;;-8.60;100.00
49843;BME280;55559;48.898;9.184;2022-12-18T04:03:25;99639.28;;;-8.57;100.00
49843;BME280;55559;48.898;9.184;2022-12-18T04:05:54;99638.38;;;-8.64;100.00
49843;BME280;55559;48.898;9.184;2022-12-18T04:08:24;99635.78;;;-8.66;100.00
49843;BME280;55559;48.898;9.184;2022-12-18T04:11:00;99643.50;;;-8.67;100.00
49843;BME280;55559;48.898;9.184;2022-12-18T04:13:31;99661.56;;;-8.66;100.00
49843;BME280;55559;48.898;9.184;2022-12-18T04:16:03;99652.03;;;-8.76;100.00
49843;BME280;55559;48.898;9.184;2022-12-18T04:18:31;99647.72;;;-8.80;100.00
49843;BME280;55559;48.898;9.184;2022-12-18T04:21:00;99648.53;;;-8.83;100.00
49843;BME280;55559;48.898;9.184;2022-12-18T04:23:28;99649.38;;;-8.84;100.00
49843;BME280;55559;48.898;9.184;2022-12-18T04:25:58;99654.53;;;-8.87;100.00
49843;BME280;55559;48.898;9.184;2022-12-18T04:28:39;99652.81;;;-8.88;100.00
49843;BME280;55559;48.898;9.184;2022-12-18T04:31:08;99647.63;;;-8.89;100.00
49843;BME280;55559;48.898;9.184;2022-12-18T04:33:35;99663.16;;;-8.85;100.00
49843;BME280;55559;48.898;9.184;2022-12-18T04:36:03;99660.53;;;-8.88;100.00
49843;BME280;55559;48.898;9.184;2022-12-18T04:38:31;99657.91;;;-8.91;100.00
49843;BME280;55559;48.898;9.184;2022-12-18T04:41:05;99650.16;;;-8.94;100.00
49843;BME280;55559;48.898;9.184;2022-12-18T04:43:33;99646.81;;;-8.84;100.00
49843;BME280;55559;48.898;9.184;2022-12-18T04:46:02;99654.50;;;-8.90;100.00
49843;BME280;55559;48.898;9.184;2022-12-18T04:48:31;99653.63;;;-8.93;100.00
49843;BME280;55559;48.898;9.184;2022-12-18T04:50:58;99651.91;;;-8.91;100.00
49843;BME280;55559;48.898;9.184;2022-12-18T04:53:26;99661.38;;;-8.89;100.00
49843;BME280;55559;48.898;9.184;2022-12-18T04:56:03;99646.75;;;-8.91;100.00
49843;BME280;55559;48.898;9.184;2022-12-18T04:58:30;99641.59;;;-8.93;100.00
49843;BME280;55559;48.898;9.184;2022-12-18T05:00:58;99643.28;;;-8.96;100.00
49843;BME280;55559;48.898;9.184;2022-12-18T05:03:25;99632.91;;;-9.03;100.00
49843;BME280;55559;48.898;9.184;2022-12-18T05:05:54;99644.06;;;-9.05;100.00
49843;BME280;55559;48.898;9.184;2022-12-18T05:08:22;99646.69;;;-8.99;100.00
49843;BME280;55559;48.898;9.184;2022-12-18T05:10:49;99638.03;;;-9.04;100.00
49843;BME280;55559;48.898;9.184;2022-12-18T05:13:17;99634.59;;;-9.06;100.00
49843;BME280;55559;48.898;9.184;2022-12-18T05:15:51;99643.19;;;-9.04;100.00
49843;BME280;55559;48.898;9.184;2022-12-18T05:18:18;99641.50;;;-9.05;100.00
49843;BME280;55559;48.898;9.184;2022-12-18T05:20:49;99650.00;;;-9.11;100.00
49843;BME280;55559;48.898;9.184;2022-12-18T05:23:19;99654.41;;;-9.04;100.00
49843;BME280;55559;48.898;9.184;2022-12-18T05:25:50;99662.06;;;-9.08;100.00
49843;BME280;55559;48.898;9.184;2022-12-18T05:28:17;99665.44;;;-9.17;100.00
49843;BME280;55559;48.898;9.184;2022-12-18T05:30:48;99653.38;;;-9.18;100.00
49843;BME280;55559;48.898;9.184;2022-12-18T05:33:16;99661.03;;;-9.26;100.00
49843;BME280;55559;48.898;9.184;2022-12-18T05:35:43;99654.16;;;-9.28;100.00
49843;BME280;55559;48.898;9.184;2022-12-18T05:38:11;99673.81;;;-9.35;100.00
49843;BME280;55559;48.898;9.184;2022-12-18T05:40:43;99681.44;;;-9.44;100.00
49843;BME280;55559;48.898;9.184;2022-12-18T05:43:11;99692.63;;;-9.42;100.00
49843;BME280;55559;48.898;9.184;2022-12-18T05:45:39;99690.09;;;-9.39;100.00
49843;BME280;55559;48.898;9.184;2022-12-18T05:48:07;99674.59;;;-9.42;100.00
49843;BME280;55559;48.898;9.184;2022-12-18T05:50:39;99670.31;;;-9.42;100.00
49843;BME280;55559;48.898;9.184;2022-12-18T05:53:07;99669.41;;;-9.45;100.00
49843;BME280;55559;48.898;9.184;2022-12-18T05:55:35;99664.31;;;-9.41;100.00
49843;BME280;55559;48.898;9.184;2022-12-18T05:58:06;99667.69;;;-9.45;100.00
49843;BME280;55559;48.898;9.184;2022-12-18T06:00:36;99673.72;;;-9.46;100.00
49843;BME280;55559;48.898;9.184;2022-12-18T06:03:05;99671.97;;;-9.48;100.00
49843;BME280;55559;48.898;9.184;2022-12-18T06:05:35;99667.63;;;-9.52;100.00
49843;BME280;55559;48.898;9.184;2022-12-18T06:08:03;99672.72;;;-9.57;100.00
49843;BME280;55559;48.898;9.184;2022-12-18T06:10:30;99671.81;;;-9.62;100.00
49843;BME280;55559;48.898;9.184;2022-12-18T06:12:58;99665.72;;;-9.69;100.00
49843;BME280;55559;48.898;9.184;2022-12-18T06:15:27;99670.97;;;-9.58;100.00
49843;BME280;55559;48.898;9.184;2022-12-18T06:17:55;99680.44;;;-9.59;100.00
49843;BME280;55559;48.898;9.184;2022-12-18T06:20:22;99670.09;;;-9.62;100.00
49843;BME280;55559;48.898;9.184;2022-12-18T06:22:50;99664.06;;;-9.64;100.00
49843;BME280;55559;48.898;9.184;2022-12-18T06:25:18;99670.94;;;-9.61;100.00
49843;BME280;55559;48.898;9.184;2022-12-18T06:27:47;99675.34;;;-9.54;100.00
49843;BME280;55559;48.898;9.184;2022-12-18T06:30:15;99674.44;;;-9.56;100.00
49843;BME280;55559;48.898;9.184;2022-12-18T06:32:43;99680.41;;;-9.60;100.00
49843;BME280;55559;48.898;9.184;2022-12-18T06:35:11;99686.41;;;-9.63;100.00
49843;BME280;55559;48.898;9.184;2022-12-18T06:37:39;99688.13;;;-9.60;100.00
49843;BME280;55559;48.898;9.184;2022-12-18T06:40:07;99689.00;;;-9.58;100.00
49843;BME280;55559;48.898;9.184;2022-12-18T06:42:34;99688.09;;;-9.63;100.00
49843;BME280;55559;48.898;9.184;2022-12-18T06:45:01;99686.34;;;-9.66;100.00
49843;BME280;55559;48.898;9.184;2022-12-18T06:47:28;99693.19;;;-9.66;100.00
49843;BME280;55559;48.898;9.184;2022-12-18T06:49:57;99694.88;;;-9.68;100.00
49843;BME280;55559;48.898;9.184;2022-12-18T06:52:31;99683.72;;;-9.69;100.00
49843;BME280;55559;48.898;9.184;2022-12-18T06:54:59;99684.53;;;-9.73;100.00
49843;BME280;55559;48.898;9.184;2022-12-18T06:57:28;99694.00;;;-9.72;100.00
49843;BME280;55559;48.898;9.184;2022-12-18T06:59:56;99691.44;;;-9.70;100.00
49843;BME280;55559;48.898;9.184;2022-12-18T07:02:23;99694.81;;;-9.73;100.00
49843;BME280;55559;48.898;9.184;2022-12-18T07:04:51;99700.84;;;-9.74;100.00
49843;BME280;55559;48.898;9.184;2022-12-18T07:07:20;99693.22;;;-9.65;100.00
49843;BME280;55559;48.898;9.184;2022-12-18T07:09:48;99709.53;;;-9.66;100.00
49843;BME280;55559;48.898;9.184;2022-12-18T07:12:16;99708.63;;;-9.68;100.00
49843;BME280;55559;48.898;9.184;2022-12-18T07:14:44;99721.50;;;-9.69;100.00
49843;BME280;55559;48.898;9.184;2022-12-18T07:17:16;99712.94;;;-9.67;100.00
49843;BME280;55559;48.898;9.184;2022-12-18T07:19:43;99720.59;;;-9.70;100.00
49843;BME280;55559;48.898;9.184;2022-12-18T07:22:11;99719.81;;;-9.66;100.00
49843;BME280;55559;48.898;9.184;2022-12-18T07:24:40;99718.97;;;-9.63;100.00
49843;BME280;55559;48.898;9.184;2022-12-18T07:27:07;99718.97;;;-9.63;100.00
49843;BME280;55559;48.898;9.184;2022-12-18T07:29:34;99725.88;;;-9.62;100.00
49843;BME280;55559;48.898;9.184;2022-12-18T07:32:02;99724.22;;;-9.57;100.00
49843;BME280;55559;48.898;9.184;2022-12-18T07:34:29;99737.16;;;-9.52;100.00
49843;BME280;55559;48.898;9.184;2022-12-18T07:36:57;99742.31;;;-9.49;100.00
49843;BME280;55559;48.898;9.184;2022-12-18T07:39:24;99729.44;;;-9.49;100.00
49843;BME280;55559;48.898;9.184;2022-12-18T07:41:53;99734.69;;;-9.42;100.00
49843;BME280;55559;48.898;9.184;2022-12-18T07:44:34;99737.34;;;-9.36;100.00
49843;BME280;55559;48.898;9.184;2022-12-18T07:47:02;99729.72;;;-9.26;100.00
49843;BME280;55559;48.898;9.184;2022-12-18T07:49:29;99735.78;;;-9.21;100.00
49843;BME280;55559;48.898;9.184;2022-12-18T07:51:57;99738.41;;;-9.18;100.00
49843;BME280;55559;48.898;9.184;2022-12-18T07:54:27;99736.75;;;-9.11;100.00
49843;BME280;55559;48.898;9.184;2022-12-18T07:56:56;99732.47;;;-9.11;100.00
49843;BME280;55559;48.898;9.184;2022-12-18T07:59:24;99731.72;;;-9.01;100.00
49843;BME280;55559;48.898;9.184;2022-12-18T08:01:51;99731.75;;;-8.96;100.00
49843;BME280;55559;48.898;9.184;2022-12-18T08:04:19;99731.78;;;-8.93;100.00
49843;BME280;55559;48.898;9.184;2022-12-18T08:06:46;99723.22;;;-8.90;100.00
49843;BME280;55559;48.898;9.184;2022-12-18T08:09:14;99735.38;;;-8.75;100.00
49843;BME280;55559;48.898;9.184;2022-12-18T08:11:41;99735.44;;;-8.72;100.00
49843;BME280;55559;48.898;9.184;2022-12-18T08:14:10;99736.28;;;-8.75;100.00
49843;BME280;55559;48.898;9.184;2022-12-18T08:16:38;99733.69;;;-8.75;100.00
49843;BME280;55559;48.898;9.184;2022-12-18T08:19:05;99735.44;;;-8.72;100.00
49843;BME280;55559;48.898;9.184;2022-12-18T08:21:33;99743.16;;;-8.72;100.00
49843;BME280;55559;48.898;9.184;2022-12-18T08:24:01;99748.25;;;-8.79;100.00
49843;BME280;55559;48.898;9.184;2022-12-18T08:26:30;99749.16;;;-8.72;100.00
49843;BME280;55559;48.898;9.184;2022-12-18T08:28:58;99741.50;;;-8.66;100.00
49843;BME280;55559;48.898;9.184;2022-12-18T08:31:29;99740.69;;;-8.63;100.00
49843;BME280;55559;48.898;9.184;2022-12-18T08:33:57;99739.00;;;-8.59;100.00
49843;BME280;55559;48.898;9.184;2022-12-18T08:36:25;99746.78;;;-8.50;100.00
49843;BME280;55559;48.898;9.184;2022-12-18T08:38:52;99743.41;;;-8.38;100.00
49843;BME280;55559;48.898;9.184;2022-12-18T08:41:20;99746.03;;;-8.35;100.00
49843;BME280;55559;48.898;9.184;2022-12-18T08:43:48;99734.06;;;-8.26;100.00
49843;BME280;55559;48.898;9.184;2022-12-18T08:46:37;99738.34;;;-8.25;100.00
49843;BME280;55559;48.898;9.184;2022-12-18T08:49:05;99744.44;;;-8.18;100.00
49843;BME280;55559;48.898;9.184;2022-12-18T08:51:33;99736.72;;;-8.13;100.00
49843;BME280;55559;48.898;9.184;2022-12-18T08:54:02;99736.69;;;-8.16;100.00
49843;BME280;55559;48.898;9.184;2022-12-18T08:56:30;99736.81;;;-8.04;100.00
49843;BME280;55559;48.898;9.184;2022-12-18T08:58:57;99724.81;;;-7.96;100.00
49843;BME280;55559;48.898;9.184;2022-12-18T09:01:25;99729.13;;;-7.92;100.00
49843;BME280;55559;48.898;9.184;2022-12-18T09:03:54;99719.66;;;-7.93;100.00
49843;BME280;55559;48.898;9.184;2022-12-18T09:06:22;99714.50;;;-7.88;100.00
49843;BME280;55559;48.898;9.184;2022-12-18T09:08:50;99712.88;;;-7.77;100.00
49843;BME280;55559;48.898;9.184;2022-12-18T09:11:20;99710.38;;;-7.60;100.00
49843;BME280;55559;48.898;9.184;2022-12-18T09:13:48;99712.97;;;-7.49;100.00
49843;BME280;55559;48.898;9.184;2022-12-18T09:16:16;99719.91;;;-7.43;100.00
49843;BME280;55559;48.898;9.184;2022-12-18T09:18:44;99712.16;;;-7.37;100.00
49843;BME280;55559;48.898;9.184;2022-12-18T09:21:14;99708.75;;;-7.29;100.00
49843;BME280;55559;48.898;9.184;2022-12-18T09:23:43;99704.47;;;-7.25;100.00
49843;BME280;55559;48.898;9.184;2022-12-18T09:26:10;99708.75;;;-7.25;100.00
49843;BME280;55559;48.898;9.184;2022-12-18T09:28:38;99704.44;;;-7.31;100.00
49843;BME280;55559;48.898;9.184;2022-12-18T09:31:07;99701.88;;;-7.25;100.00
49843;BME280;55559;48.898;9.184;2022-12-18T09:33:36;99695.88;;;-7.19;100.00
49843;BME280;55559;48.898;9.184;2022-12-18T09:36:07;99694.16;;;-7.03;100.00
49843;BME280;55559;48.898;9.184;2022-12-18T09:38:36;99699.38;;;-6.88;100.00
49843;BME280;55559;48.898;9.184;2022-12-18T09:41:06;99695.94;;;-6.78;100.00
49843;BME280;55559;48.898;9.184;2022-12-18T09:43:46;99703.69;;;-6.73;100.00
49843;BME280;55559;48.898;9.184;2022-12-18T09:46:18;99699.38;;;-6.68;100.00
49843;BME280;55559;48.898;9.184;2022-12-18T09:48:49;99695.06;;;-6.72;100.00
49843;BME280;55559;48.898;9.184;2022-12-18T09:51:20;99688.19;;;-6.62;100.00
49843;BME280;55559;48.898;9.184;2022-12-18T09:53:55;99674.38;;;-6.44;100.00
49843;BME280;55559;48.898;9.184;2022-12-18T09:56:25;99684.72;;;-6.33;100.00
49843;BME280;55559;48.898;9.184;2022-12-18T09:58:58;99681.25;;;-6.23;100.00
49843;BME280;55559;48.898;9.184;2022-12-18T10:01:26;99689.88;;;-6.18;100.00
49843;BME280;55559;48.898;9.184;2022-12-18T10:03:54;99684.66;;;-6.03;100.00
49843;BME280;55559;48.898;9.184;2022-12-18T10:06:25;99688.03;;;-5.81;100.00
49843;BME280;55559;48.898;9.184;2022-12-18T10:09:01;99690.63;;;-5.76;100.00
49843;BME280;55559;48.898;9.184;2022-12-18T10:11:38;99694.00;;;-5.55;100.00
49843;BME280;55559;48.898;9.184;2022-12-18T10:14:14;99690.50;;;-5.50;100.00
49843;BME280;55559;48.898;9.184;2022-12-18T10:16:53;99694.81;;;-5.44;100.00
49843;BME280;55559;48.898;9.184;2022-12-18T10:19:34;99693.00;;;-5.31;100.00
49843;BME280;55559;48.898;9.184;2022-12-18T10:22:12;99704.19;;;-5.20;100.00
49843;BME280;55559;48.898;9.184;2022-12-18T10:24:53;99700.69;;;-5.11;100.00
49843;BME280;55559;48.898;9.184;2022-12-18T10:27:23;99705.94;;;-5.16;100.00
49843;BME280;55559;48.898;9.184;2022-12-18T10:29:52;99711.06;;;-5.10;100.00
49843;BME280;55559;48.898;9.184;2022-12-18T10:32:22;99704.09;;;-4.97;100.00
49843;BME280;55559;48.898;9.184;2022-12-18T10:34:54;99692.88;;;-4.99;100.00
49843;BME280;55559;48.898;9.184;2022-12-18T10:37:25;99690.22;;;-4.94;100.00
49843;BME280;55559;48.898;9.184;2022-12-18T10:40:26;99697.97;;;-4.88;100.00
49843;BME280;55559;48.898;9.184;2022-12-18T10:43:04;99696.97;;;-4.67;100.00
49843;BME280;55559;48.898;9.184;2022-12-18T10:45:33;99688.94;;;-4.38;100.00
49843;BME280;55559;48.898;9.184;2022-12-18T10:48:01;99697.78;;;-4.60;100.00
49843;BME280;55559;48.898;9.184;2022-12-18T10:50:31;99692.38;;;-4.34;100.00
49843;BME280;55559;48.898;9.184;2022-12-18T10:53:01;99686.13;;;-4.13;100.00
49843;BME280;55559;48.898;9.184;2022-12-18T10:55:34;99679.06;;;-4.02;100.00
49843;BME280;55559;48.898;9.184;2022-12-18T10:58:23;99685.03;;;-3.90;100.00
49843;BME280;55559;48.898;9.184;2022-12-18T11:01:09;99684.97;;;-3.83;100.00
49843;BME280;55559;48.898;9.184;2022-12-18T11:03:38;99691.84;;;-3.79;100.00
49843;BME280;55559;48.898;9.184;2022-12-18T11:06:09;99689.81;;;-3.53;100.00
49843;BME280;55559;48.898;9.184;2022-12-18T11:08:37;99691.78;;;-3.74;100.00
49843;BME280;55559;48.898;9.184;2022-12-18T11:11:23;99679.38;;;-3.50;100.00
49843;BME280;55559;48.898;9.184;2022-12-18T11:13:58;99679.25;;;-3.40;100.00
49843;BME280;55559;48.898;9.184;2022-12-18T11:16:27;99668.47;;;-3.12;100.00
49843;BME280;55559;48.898;9.184;2022-12-18T11:19:17;99664.84;;;-3.00;100.00
49843;BME280;55559;48.898;9.184;2022-12-18T11:21:47;99653.69;;;-3.08;100.00
49843;BME280;55559;48.898;9.184;2022-12-18T11:24:20;99649.94;;;-2.90;100.00
49843;BME280;55559;48.898;9.184;2022-12-18T11:26:52;99642.28;;;-3.01;100.00
49843;BME280;55559;48.898;9.184;2022-12-18T11:29:24;99640.56;;;-3.02;100.00
49843;BME280;55559;48.898;9.184;2022-12-18T11:32:20;99642.63;;;-2.67;100.00
49843;BME280;55559;48.898;9.184;2022-12-18T11:34:51;99647.53;;;-2.48;100.00
49843;BME280;55559;48.898;9.184;2022-12-18T11:37:20;99652.81;;;-2.51;100.00
49843;BME280;55559;48.898;9.184;2022-12-18T11:39:52;99654.66;;;-2.58;100.00
49843;BME280;55559;48.898;9.184;2022-12-18T11:42:30;99646.47;;;-2.36;100.00
49843;BME280;55559;48.898;9.184;2022-12-18T11:45:03;99640.13;;;-2.21;100.00
49843;BME280;55559;48.898;9.184;2022-12-18T11:47:39;99627.03;;;-2.18;100.00
49843;BME280;55559;48.898;9.184;2022-12-18T11:50:13;99632.88;;;-2.04;100.00
49843;BME280;55559;48.898;9.184;2022-12-18T11:52:41;99627.72;;;-2.07;100.00
49843;BME280;55559;48.898;9.184;2022-12-18T11:55:12;99630.84;;;-1.90;100.00
49843;BME280;55559;48.898;9.184;2022-12-18T11:57:49;99627.75;;;-2.09;100.00
49843;BME280;55559;48.898;9.184;2022-12-18T12:00:22;99627.06;;;-0.94;100.00
49843;BME280;55559;48.898;9.184;2022-12-18T12:03:11;99623.66;;;-0.61;100.00
49843;BME280;55559;48.898;9.184;2022-12-18T12:05:55;99612.34;;;-0.60;100.00
49843;BME280;55559;48.898;9.184;2022-12-18T12:08:33;99608.06;;;-0.64;100.00
49843;BME280;55559;48.898;9.184;2022-12-18T12:11:06;99598.69;;;-0.73;100.00
49843;BME280;55559;48.898;9.184;2022-12-18T12:13:45;99594.56;;;-0.82;100.00
49843;BME280;55559;48.898;9.184;2022-12-18T12:16:18;99600.50;;;-0.75;100.00
49843;BME280;55559;48.898;9.184;2022-12-18T12:19:07;99595.72;;;-0.94;100.00
49843;BME280;55559;48.898;9.184;2022-12-18T12:21:40;99597.41;;;-0.55;100.00
49843;BME280;55559;48.898;9.184;2022-12-18T12:24:23;99588.31;;;-1.12;100.00
49843;BME280;55559;48.898;9.184;2022-12-18T12:27:03;99602.63;;;-1.30;100.00
49843;BME280;55559;48.898;9.184;2022-12-18T12:29:44;99595.31;;;-1.52;100.00
49843;BME280;55559;48.898;9.184;2022-12-18T12:32:27;99595.00;;;-1.38;100.00
49843;BME280;55559;48.898;9.184;2022-12-18T12:35:09;99600.31;;;-1.42;100.00
49843;BME280;55559;48.898;9.184;2022-12-18T12:37:49;99588.38;;;-1.53;100.00
49843;BME280;55559;48.898;9.184;2022-12-18T12:40:24;99598.78;;;-1.53;100.00
49843;BME280;55559;48.898;9.184;2022-12-18T12:42:56;99602.97;;;-1.45;100.00
49843;BME280;55559;48.898;9.184;2022-12-18T12:45:46;99604.63;;;-1.40;100.00
49843;BME280;55559;48.898;9.184;2022-12-18T12:48:19;99604.72;;;-1.44;100.00
49843;BME280;55559;48.898;9.184;2022-12-18T12:50:50;99603.88;;;-1.45;100.00
49843;BME280;55559;48.898;9.184;2022-12-18T12:53:26;99611.47;;;-1.36;100.00
49843;BME280;55559;48.898;9.184;2022-12-18T12:55:57;99617.66;;;-1.40;100.00
49843;BME280;55559;48.898;9.184;2022-12-18T12:58:31;99618.25;;;-1.28;100.00
49843;BME280;55559;48.898;9.184;2022-12-18T13:01:09;99612.28;;;-1.34;100.00
49843;BME280;55559;48.898;9.184;2022-12-18T13:03:53;99608.09;;;-1.41;100.00
49843;BME280;55559;48.898;9.184;2022-12-18T13:06:32;99607.44;;;-1.51;100.00
49843;BME280;55559;48.898;9.184;2022-12-18T13:09:03;99618.50;;;-1.39;100.00
49843;BME280;55559;48.898;9.184;2022-12-18T13:11:34;99614.88;;;-1.32;100.00
49843;BME280;55559;48.898;9.184;2022-12-18T13:14:23;99611.72;;;-1.46;100.00
49843;BME280;55559;48.898;9.184;2022-12-18T13:20:11;99611.34;;;-1.29;100.00